createdAt,value
2022-07-26T00:01:47.434Z,99.90
2022-07-26T00:04:14.952Z,99.90
2022-07-26T00:06:42.027Z,99.90
2022-07-26T00:09:09.511Z,99.90
2022-07-26T00:11:36.986Z,99.90
2022-07-26T00:14:06.756Z,99.90
2022-07-26T00:16:35.444Z,99.90
2022-07-26T00:19:03.309Z,99.90
2022-07-26T00:21:30.982Z,99.90
2022-07-26T00:23:58.278Z,99.90
2022-07-26T00:26:25.510Z,99.90
2022-07-26T00:28:52.832Z,99.90
2022-07-26T00:31:20.112Z,99.90
2022-07-26T00:33:47.365Z,99.90
2022-07-26T00:36:14.963Z,99.90
2022-07-26T00:38:42.178Z,99.90
2022-07-26T00:41:09.481Z,99.90
2022-07-26T00:43:36.677Z,99.90
2022-07-26T00:46:03.970Z,99.90
2022-07-26T00:48:31.191Z,99.90
2022-07-26T00:50:58.536Z,99.90
2022-07-26T00:53:25.853Z,99.90
2022-07-26T00:55:53.726Z,99.90
2022-07-26T00:58:20.961Z,99.90
2022-07-26T01:00:48.618Z,99.90
2022-07-26T01:03:16.246Z,99.90
2022-07-26T01:05:43.679Z,99.90
2022-07-26T01:08:10.797Z,99.90
2022-07-26T01:10:38.328Z,99.90
2022-07-26T01:13:05.818Z,99.90
2022-07-26T01:15:33.032Z,99.90
2022-07-26T01:18:00.453Z,99.90
2022-07-26T01:20:27.671Z,99.90
2022-07-26T01:22:54.962Z,99.90
2022-07-26T01:25:33.382Z,99.90
2022-07-26T01:28:11.445Z,99.90
2022-07-26T01:30:47.607Z,99.90
2022-07-26T01:33:14.900Z,99.90
2022-07-26T01:35:42.223Z,99.90
2022-07-26T01:38:09.767Z,99.90
2022-07-26T01:40:37.146Z,99.90
2022-07-26T01:43:04.305Z,99.90
2022-07-26T01:45:32.031Z,99.90
2022-07-26T01:47:59.478Z,99.90
2022-07-26T01:50:26.634Z,99.90
2022-07-26T01:52:54.115Z,99.90
2022-07-26T01:55:21.300Z,99.90
2022-07-26T01:57:48.400Z,99.90
2022-07-26T02:00:16.121Z,99.90
2022-07-26T02:02:43.579Z,99.90
2022-07-26T02:05:11.426Z,99.90
2022-07-26T02:07:42.790Z,99.90
2022-07-26T02:10:47.474Z,99.90
2022-07-26T02:13:14.975Z,99.90
2022-07-26T02:15:42.530Z,99.90
2022-07-26T02:18:10.045Z,99.90
2022-07-26T02:20:37.265Z,99.90
2022-07-26T02:23:05.172Z,99.90
2022-07-26T02:25:32.502Z,99.90
2022-07-26T02:28:01.357Z,99.90
2022-07-26T02:30:29.301Z,99.90
2022-07-26T02:35:41.200Z,99.90
2022-07-26T02:38:11.488Z,99.90
2022-07-26T02:40:39.874Z,99.90
2022-07-26T02:43:08.648Z,99.90
2022-07-26T02:45:36.890Z,99.90
2022-07-26T02:48:12.093Z,99.90
2022-07-26T02:50:40.341Z,99.90
2022-07-26T02:53:07.506Z,99.90
2022-07-26T02:55:34.595Z,99.90
2022-07-26T02:58:01.799Z,99.90
2022-07-26T03:00:30.169Z,99.90
2022-07-26T03:02:57.874Z,99.90
2022-07-26T03:05:25.043Z,99.90
2022-07-26T03:07:52.551Z,99.90
2022-07-26T03:10:19.871Z,99.90
2022-07-26T03:12:49.012Z,99.90
2022-07-26T03:15:16.266Z,99.90
2022-07-26T03:17:44.523Z,99.90
2022-07-26T03:20:12.720Z,99.90
2022-07-26T03:22:39.930Z,99.90
2022-07-26T03:25:07.393Z,99.90
2022-07-26T03:27:35.280Z,99.90
2022-07-26T03:30:02.455Z,99.90
2022-07-26T03:32:31.430Z,99.90
2022-07-26T03:34:58.671Z,99.90
2022-07-26T03:37:25.987Z,99.90
2022-07-26T03:40:12.955Z,99.90
2022-07-26T03:42:40.081Z,99.90
2022-07-26T03:45:07.899Z,99.90
2022-07-26T03:47:35.257Z,99.90
2022-07-26T03:50:02.390Z,99.90
2022-07-26T03:52:31.283Z,99.90
2022-07-26T03:54:58.754Z,99.90
2022-07-26T03:57:28.149Z,99.90
2022-07-26T03:59:56.015Z,99.90
2022-07-26T04:02:31.615Z,99.90
2022-07-26T04:04:59.195Z,99.90
2022-07-26T04:07:27.077Z,99.90
2022-07-26T04:09:54.252Z,99.90
2022-07-26T04:12:21.460Z,99.90
2022-07-26T04:14:48.676Z,99.90
2022-07-26T04:17:15.891Z,99.90
2022-07-26T04:19:43.098Z,99.90
2022-07-26T04:22:10.306Z,99.90
2022-07-26T04:24:37.389Z,99.90
2022-07-26T04:27:04.659Z,99.90
2022-07-26T04:29:35.027Z,99.90
2022-07-26T04:32:02.078Z,99.90
2022-07-26T04:34:29.282Z,99.90
2022-07-26T04:36:56.373Z,99.90
2022-07-26T04:39:24.750Z,99.90
2022-07-26T04:41:51.866Z,99.90
2022-07-26T04:44:18.943Z,99.90
2022-07-26T04:46:46.121Z,99.90
2022-07-26T04:49:14.120Z,99.90
2022-07-26T04:51:41.439Z,99.90
2022-07-26T04:54:08.863Z,99.90
2022-07-26T04:56:36.195Z,99.90
2022-07-26T04:59:03.398Z,99.90
2022-07-26T05:01:30.581Z,99.90
2022-07-26T05:03:57.741Z,99.90
2022-07-26T05:06:25.141Z,99.90
2022-07-26T05:08:52.312Z,99.90
2022-07-26T05:11:21.882Z,99.90
2022-07-26T05:13:49.286Z,99.90
2022-07-26T05:16:16.584Z,99.90
2022-07-26T05:18:48.907Z,99.90
2022-07-26T05:21:18.502Z,99.90
2022-07-26T05:23:46.157Z,99.90
2022-07-26T05:26:13.299Z,99.90
2022-07-26T05:28:41.065Z,99.90
2022-07-26T05:31:08.863Z,99.90
2022-07-26T05:33:36.037Z,99.90
2022-07-26T05:36:03.378Z,99.90
2022-07-26T05:38:30.500Z,99.90
2022-07-26T05:40:57.617Z,99.90
2022-07-26T05:43:26.263Z,99.90
2022-07-26T05:46:09.709Z,99.90
2022-07-26T05:48:37.706Z,99.90
2022-07-26T05:51:05.200Z,99.90
2022-07-26T05:53:32.533Z,99.90
2022-07-26T05:55:59.668Z,99.90
2022-07-26T05:58:26.754Z,99.90
2022-07-26T06:00:54.068Z,99.90
2022-07-26T06:03:24.554Z,99.90
2022-07-26T06:05:54.365Z,99.90
2022-07-26T06:08:22.942Z,99.90
2022-07-26T06:10:51.091Z,99.90
2022-07-26T06:13:18.789Z,99.90
2022-07-26T06:15:46.799Z,99.90
2022-07-26T06:18:14.428Z,99.90
2022-07-26T06:20:43.738Z,99.90
2022-07-26T06:23:11.059Z,99.90
2022-07-26T06:25:38.664Z,99.90
2022-07-26T06:28:08.605Z,99.90
2022-07-26T06:30:39.963Z,99.90
2022-07-26T06:33:09.646Z,99.90
2022-07-26T06:35:39.382Z,99.90
2022-07-26T06:38:07.354Z,99.90
2022-07-26T06:40:35.251Z,99.90
2022-07-26T06:43:04.675Z,99.90
2022-07-26T06:45:34.256Z,99.90
2022-07-26T06:48:01.585Z,99.90
2022-07-26T06:50:28.806Z,99.90
2022-07-26T06:52:56.199Z,99.90
2022-07-26T06:55:23.852Z,99.90
2022-07-26T06:57:50.933Z,99.90
2022-07-26T07:00:18.919Z,99.90
2022-07-26T07:02:46.288Z,99.90
2022-07-26T07:05:13.715Z,99.90
2022-07-26T07:07:42.122Z,99.90
2022-07-26T07:10:10.722Z,99.90
2022-07-26T07:12:40.747Z,99.90
2022-07-26T07:15:08.481Z,99.90
2022-07-26T07:17:35.786Z,99.90
2022-07-26T07:20:05.124Z,99.90
2022-07-26T07:22:33.055Z,99.90
2022-07-26T07:25:01.022Z,99.90
2022-07-26T07:27:31.042Z,99.90
2022-07-26T07:29:58.354Z,99.90
2022-07-26T07:32:25.727Z,99.90
2022-07-26T07:34:53.615Z,99.90
2022-07-26T07:37:20.767Z,99.90
2022-07-26T07:39:50.450Z,99.90
2022-07-26T07:42:19.506Z,99.90
2022-07-26T07:44:47.299Z,99.90
2022-07-26T07:47:15.002Z,99.90
2022-07-26T07:49:42.401Z,99.90
2022-07-26T07:52:09.571Z,99.90
2022-07-26T07:54:36.789Z,99.90
2022-07-26T07:57:04.156Z,99.90
2022-07-26T07:59:31.363Z,99.90
2022-07-26T08:01:59.280Z,99.90
2022-07-26T08:04:26.564Z,99.90
2022-07-26T08:06:53.850Z,99.90
2022-07-26T08:09:21.596Z,99.90
2022-07-26T08:11:50.940Z,99.90
2022-07-26T08:14:19.344Z,99.90
2022-07-26T08:16:46.893Z,99.90
2022-07-26T08:19:15.457Z,99.90
2022-07-26T08:21:46.865Z,99.90
2022-07-26T08:24:14.675Z,99.90
2022-07-26T08:26:42.225Z,99.90
2022-07-26T08:29:09.471Z,99.90
2022-07-26T08:31:37.078Z,99.90
2022-07-26T08:34:04.378Z,99.90
2022-07-26T08:36:33.015Z,99.90
2022-07-26T08:39:01.725Z,99.90
2022-07-26T08:41:29.489Z,99.90
2022-07-26T08:44:05.902Z,99.90
2022-07-26T08:46:36.715Z,99.90
2022-07-26T08:49:07.853Z,99.90
2022-07-26T08:51:43.899Z,99.40
2022-07-26T08:54:13.916Z,99.90
2022-07-26T08:56:50.826Z,99.90
2022-07-26T08:59:21.758Z,99.90
2022-07-26T09:02:01.985Z,99.90
2022-07-26T09:04:43.958Z,99.90
2022-07-26T09:07:13.111Z,99.90
2022-07-26T09:10:02.990Z,99.60
2022-07-26T09:12:32.206Z,99.90
2022-07-26T09:15:03.225Z,99.90
2022-07-26T09:17:51.760Z,99.60
2022-07-26T09:20:46.328Z,97.70
2022-07-26T09:23:14.101Z,95.60
2022-07-26T09:25:44.497Z,95.30
2022-07-26T09:28:28.796Z,96.50
2022-07-26T09:31:04.401Z,96.60
2022-07-26T09:33:45.735Z,95.80
2022-07-26T09:36:12.959Z,99.00
2022-07-26T09:38:46.572Z,99.90
2022-07-26T09:41:34.817Z,99.50
2022-07-26T09:44:20.946Z,99.30
2022-07-26T09:46:57.291Z,97.20
2022-07-26T09:49:30.955Z,94.60
2022-07-26T09:52:18.410Z,92.20
2022-07-26T09:54:49.386Z,94.50
2022-07-26T09:57:22.030Z,91.10
2022-07-26T09:59:49.150Z,90.70
2022-07-26T10:02:16.335Z,91.40
2022-07-26T10:04:48.009Z,90.50
2022-07-26T10:07:15.835Z,90.90
2022-07-26T10:09:48.656Z,90.00
2022-07-26T10:12:17.375Z,87.60
2022-07-26T10:14:47.201Z,89.30
2022-07-26T10:17:31.772Z,89.50
2022-07-26T10:20:17.406Z,85.30
2022-07-26T10:22:52.046Z,82.90
2022-07-26T10:25:20.449Z,82.60
2022-07-26T10:27:56.693Z,80.70
2022-07-26T10:30:34.181Z,81.70
2022-07-26T10:33:12.952Z,88.40
2022-07-26T10:35:45.751Z,90.50
2022-07-26T10:38:23.258Z,90.40
2022-07-26T10:41:00.553Z,90.90
2022-07-26T10:43:44.239Z,90.50
2022-07-26T10:46:18.764Z,83.80
2022-07-26T10:49:09.028Z,72.40
2022-07-26T10:51:41.267Z,63.80
2022-07-26T10:54:11.279Z,61.40
2022-07-26T10:56:50.953Z,62.10
2022-07-26T10:59:54.952Z,59.70
2022-07-26T11:02:24.974Z,54.50
2022-07-26T11:05:00.989Z,57.00
2022-07-26T11:07:31.583Z,58.90
2022-07-26T11:10:00.870Z,65.40
2022-07-26T11:12:28.459Z,63.90
2022-07-26T11:14:55.554Z,70.80
2022-07-26T11:17:30.734Z,75.30
2022-07-26T11:19:58.341Z,77.30
2022-07-26T11:22:33.336Z,77.20
2022-07-26T11:25:04.362Z,75.80
2022-07-26T11:27:31.848Z,72.30
2022-07-26T11:30:05.043Z,56.50
2022-07-26T11:32:32.547Z,50.00
2022-07-26T11:35:02.387Z,42.70
2022-07-26T11:37:31.541Z,44.00
2022-07-26T11:39:58.759Z,42.40
2022-07-26T11:42:26.013Z,42.40
2022-07-26T11:44:54.143Z,42.70
2022-07-26T11:47:25.580Z,50.50
2022-07-26T11:52:41.224Z,45.40
2022-07-26T11:55:09.062Z,37.10
2022-07-26T11:57:50.879Z,36.30
2022-07-26T12:00:19.050Z,34.50
2022-07-26T12:02:46.595Z,31.60
2022-07-26T12:05:33.743Z,32.20
2022-07-26T12:08:04.528Z,27.30
2022-07-26T12:10:32.284Z,28.50
2022-07-26T12:13:14.978Z,31.60
2022-07-26T12:15:51.302Z,28.40
2022-07-26T12:18:29.929Z,25.50
2022-07-26T12:21:07.869Z,23.40
2022-07-26T12:23:50.439Z,22.30
2022-07-26T12:26:27.329Z,24.00
2022-07-26T12:28:55.766Z,24.40
2022-07-26T12:31:25.501Z,25.00
2022-07-26T12:33:53.074Z,24.80
2022-07-26T12:36:28.365Z,27.50
2022-07-26T12:38:58.239Z,26.50
2022-07-26T12:41:37.210Z,30.00
2022-07-26T12:44:06.190Z,36.40
2022-07-26T12:46:35.216Z,40.10
2022-07-26T12:49:02.953Z,42.80
2022-07-26T12:51:30.278Z,43.60
2022-07-26T12:53:57.452Z,44.80
2022-07-26T12:56:24.588Z,47.20
2022-07-26T12:58:53.248Z,48.40
2022-07-26T13:01:20.492Z,48.10
2022-07-26T13:03:47.660Z,48.10
2022-07-26T13:06:15.381Z,47.00
2022-07-26T13:08:42.448Z,49.30
2022-07-26T13:11:10.241Z,49.40
2022-07-26T13:13:37.412Z,48.50
2022-07-26T13:16:11.140Z,49.10
2022-07-26T13:18:39.176Z,49.10
2022-07-26T13:21:06.489Z,49.40
2022-07-26T13:23:35.717Z,47.60
2022-07-26T13:26:03.667Z,47.00
2022-07-26T13:28:31.489Z,46.10
2022-07-26T13:30:58.772Z,50.40
2022-07-26T13:33:27.857Z,54.70
2022-07-26T13:35:55.339Z,67.70
2022-07-26T13:38:22.495Z,75.30
2022-07-26T13:40:50.657Z,74.80
2022-07-26T13:43:17.940Z,73.60
2022-07-26T13:45:45.116Z,72.50
2022-07-26T13:48:12.487Z,74.30
2022-07-26T13:50:39.681Z,74.90
2022-07-26T13:53:07.018Z,80.00
2022-07-26T13:55:38.341Z,83.30
2022-07-26T13:58:10.266Z,84.60
2022-07-26T14:00:38.209Z,87.80
2022-07-26T14:03:05.605Z,88.50
2022-07-26T14:05:32.973Z,79.00
2022-07-26T14:08:00.191Z,67.50
2022-07-26T14:10:27.413Z,68.10
2022-07-26T14:12:54.923Z,68.90
2022-07-26T14:15:24.766Z,69.40
2022-07-26T14:17:53.211Z,64.30
2022-07-26T14:20:21.666Z,65.70
2022-07-26T14:22:53.675Z,61.40
2022-07-26T14:25:21.919Z,57.90
2022-07-26T14:27:50.904Z,61.70
2022-07-26T14:30:18.382Z,68.50
2022-07-26T14:32:45.714Z,71.20
2022-07-26T14:35:13.781Z,72.10
2022-07-26T14:37:44.942Z,71.00
2022-07-26T14:40:15.460Z,68.50
2022-07-26T14:42:43.222Z,72.00
2022-07-26T14:45:11.013Z,71.30
2022-07-26T14:47:38.630Z,70.90
2022-07-26T14:50:08.216Z,70.80
2022-07-26T14:52:47.806Z,73.70
2022-07-26T14:55:17.483Z,75.60
2022-07-26T14:57:47.844Z,76.10
2022-07-26T15:00:17.200Z,77.20
2022-07-26T15:02:46.804Z,77.80
2022-07-26T15:05:15.279Z,75.70
2022-07-26T15:07:51.798Z,77.60
2022-07-26T15:10:29.256Z,78.60
2022-07-26T15:13:01.198Z,80.00
2022-07-26T15:15:29.290Z,80.70
2022-07-26T15:17:57.281Z,83.90
2022-07-26T15:20:24.579Z,85.90
2022-07-26T15:22:55.845Z,86.60
2022-07-26T15:25:24.063Z,85.60
2022-07-26T15:27:52.116Z,85.10
2022-07-26T15:30:20.037Z,88.80
2022-07-26T15:32:47.610Z,89.40
2022-07-26T15:35:15.110Z,89.00
2022-07-26T15:37:43.939Z,90.60
2022-07-26T15:40:12.497Z,91.20
2022-07-26T15:42:42.660Z,94.60
2022-07-26T15:45:12.111Z,95.00
2022-07-26T15:48:03.206Z,94.90
2022-07-26T15:50:27.500Z,95.20
2022-07-26T15:52:54.864Z,96.00
2022-07-26T15:55:22.294Z,96.00
2022-07-26T15:57:49.661Z,97.20
2022-07-26T16:00:17.343Z,97.60
2022-07-26T16:02:44.728Z,99.90
2022-07-26T16:05:13.138Z,99.90
2022-07-26T16:07:44.232Z,99.90
2022-07-26T16:10:13.027Z,99.90
2022-07-26T16:12:41.976Z,99.90
2022-07-26T16:15:10.670Z,99.90
2022-07-26T16:17:38.010Z,99.90
2022-07-26T16:20:05.893Z,99.90
2022-07-26T16:22:33.245Z,98.90
2022-07-26T16:25:00.539Z,98.60
2022-07-26T16:27:28.011Z,98.50
2022-07-26T16:29:55.229Z,98.70
2022-07-26T16:32:22.494Z,99.30
2022-07-26T16:34:49.809Z,98.90
2022-07-26T16:37:17.096Z,98.70
2022-07-26T16:39:44.412Z,99.80
2022-07-26T16:42:11.552Z,98.60
2022-07-26T16:44:38.763Z,99.50
2022-07-26T16:47:06.150Z,98.40
2022-07-26T16:49:33.489Z,98.40
2022-07-26T16:52:00.800Z,98.10
2022-07-26T16:54:27.975Z,97.70
2022-07-26T16:56:55.397Z,97.40
2022-07-26T16:59:22.625Z,97.10
2022-07-26T17:01:49.979Z,97.80
2022-07-26T17:04:18.205Z,97.10
2022-07-26T17:07:01.629Z,96.50
2022-07-26T17:09:32.520Z,95.80
2022-07-26T17:12:02.968Z,96.30
2022-07-26T17:14:33.621Z,96.40
2022-07-26T17:17:00.842Z,96.90
2022-07-26T17:19:28.543Z,97.10
2022-07-26T17:21:55.729Z,97.50
2022-07-26T17:24:22.877Z,98.10
2022-07-26T17:26:50.349Z,98.10
2022-07-26T17:29:17.555Z,98.70
2022-07-26T17:31:44.816Z,99.30
2022-07-26T17:34:12.176Z,99.70
2022-07-26T17:36:39.358Z,99.90
2022-07-26T17:39:12.657Z,99.90
2022-07-26T17:41:47.403Z,99.90
2022-07-26T17:44:15.283Z,99.90
2022-07-26T17:46:42.922Z,99.90
2022-07-26T17:49:10.502Z,99.90
2022-07-26T17:51:38.005Z,99.90
2022-07-26T17:54:05.567Z,99.90
2022-07-26T17:56:32.641Z,99.90
2022-07-26T17:59:00.119Z,99.90
2022-07-26T18:01:27.480Z,99.90
2022-07-26T18:03:54.817Z,99.90
2022-07-26T18:06:22.014Z,99.90
2022-07-26T18:08:49.197Z,99.90
2022-07-26T18:11:16.837Z,99.90
2022-07-26T18:13:44.013Z,99.90
2022-07-26T18:16:11.367Z,99.90
2022-07-26T18:18:38.810Z,99.90
2022-07-26T18:21:05.937Z,99.90
2022-07-26T18:23:33.018Z,99.90
2022-07-26T18:26:00.125Z,99.90
2022-07-26T18:28:27.586Z,99.90
2022-07-26T18:30:54.969Z,99.90
2022-07-26T18:33:22.163Z,99.90
2022-07-26T18:35:49.294Z,99.90
2022-07-26T18:38:16.459Z,99.90
2022-07-26T18:40:43.745Z,99.90
2022-07-26T18:43:11.018Z,99.90
2022-07-26T18:45:38.461Z,99.90
2022-07-26T18:48:05.873Z,99.90
2022-07-26T18:50:33.301Z,99.90
2022-07-26T18:53:02.331Z,99.90
2022-07-26T18:55:29.510Z,99.90
2022-07-26T18:57:57.030Z,99.90
2022-07-26T19:00:25.227Z,99.90
2022-07-26T19:02:54.215Z,99.90
2022-07-26T19:05:24.909Z,99.90
2022-07-26T19:07:52.191Z,99.90
2022-07-26T19:10:20.290Z,99.90
2022-07-26T19:12:48.766Z,99.90
2022-07-26T19:15:16.607Z,99.90
2022-07-26T19:17:44.459Z,99.90
2022-07-26T19:20:12.729Z,99.90
2022-07-26T19:22:40.542Z,99.90
2022-07-26T19:25:10.635Z,99.90
2022-07-26T19:27:38.817Z,99.90
2022-07-26T19:30:08.957Z,99.90
2022-07-26T19:32:36.638Z,99.90
2022-07-26T19:35:05.071Z,99.90
2022-07-26T19:37:32.420Z,99.90
2022-07-26T19:40:01.186Z,99.90
2022-07-26T19:42:31.914Z,99.90
2022-07-26T19:45:05.086Z,99.90
2022-07-26T19:47:33.379Z,99.90
2022-07-26T19:50:00.489Z,99.90
2022-07-26T19:52:27.833Z,99.90
2022-07-26T19:54:55.029Z,99.90
2022-07-26T19:57:22.923Z,99.90
2022-07-26T19:59:50.165Z,99.90
2022-07-26T20:02:17.571Z,99.90
2022-07-26T20:04:46.203Z,99.90
2022-07-26T20:07:19.446Z,99.90
2022-07-26T20:09:49.224Z,99.90
2022-07-26T20:12:17.553Z,99.90
2022-07-26T20:14:45.431Z,99.90
2022-07-26T20:17:13.447Z,99.90
2022-07-26T20:19:41.325Z,99.90
2022-07-26T20:22:08.676Z,99.90
2022-07-26T20:24:38.161Z,99.90
2022-07-26T20:27:07.056Z,99.90
2022-07-26T20:29:34.204Z,99.90
2022-07-26T20:32:01.408Z,99.90
2022-07-26T20:34:28.680Z,99.90
2022-07-26T20:36:55.948Z,99.90
2022-07-26T20:42:07.186Z,99.90
2022-07-26T20:44:40.148Z,99.90
2022-07-26T20:47:07.418Z,99.90
2022-07-26T20:49:34.722Z,99.90
2022-07-26T20:52:05.175Z,99.90
2022-07-26T20:54:32.864Z,99.90
2022-07-26T20:56:59.955Z,99.90
2022-07-26T20:59:32.504Z,99.90
2022-07-26T21:01:59.930Z,99.90
2022-07-26T21:04:27.093Z,99.90
2022-07-26T21:06:54.301Z,99.90
2022-07-26T21:09:21.420Z,99.90
2022-07-26T21:11:48.766Z,99.90
2022-07-26T21:14:15.997Z,99.90
2022-07-26T21:16:43.334Z,99.90
2022-07-26T21:19:10.846Z,99.90
2022-07-26T21:21:38.341Z,99.90
2022-07-26T21:24:06.788Z,99.90
2022-07-26T21:26:34.147Z,99.90
2022-07-26T21:29:01.481Z,99.90
2022-07-26T21:31:28.734Z,99.90
2022-07-26T21:33:55.796Z,99.90
2022-07-26T21:36:23.461Z,99.90
2022-07-26T21:38:50.601Z,99.90
2022-07-26T21:41:17.689Z,99.90
2022-07-26T21:43:44.819Z,99.90
2022-07-26T21:46:13.513Z,99.90
2022-07-26T21:48:41.341Z,99.90
2022-07-26T21:51:08.822Z,99.90
2022-07-26T21:53:36.046Z,99.90
2022-07-26T21:56:05.689Z,99.90
2022-07-26T21:58:36.632Z,99.90
2022-07-26T22:01:11.415Z,99.90
2022-07-26T22:03:39.824Z,99.90
2022-07-26T22:06:07.842Z,99.90
2022-07-26T22:08:36.193Z,99.90
2022-07-26T22:11:04.671Z,99.90
2022-07-26T22:13:32.256Z,99.90
2022-07-26T22:15:59.653Z,99.90
2022-07-26T22:18:27.305Z,99.90
2022-07-26T22:20:55.354Z,99.90
2022-07-26T22:23:32.226Z,99.90
2022-07-26T22:26:02.008Z,99.90
2022-07-26T22:28:31.000Z,99.90
2022-07-26T22:30:58.592Z,99.90
2022-07-26T22:33:25.941Z,99.90
2022-07-26T22:35:53.355Z,99.90
2022-07-26T22:38:22.090Z,99.90
2022-07-26T22:40:49.836Z,99.90
2022-07-26T22:43:17.108Z,99.90
2022-07-26T22:45:44.706Z,99.90
2022-07-26T22:48:12.022Z,99.90
2022-07-26T22:50:39.261Z,99.90
2022-07-26T22:53:06.588Z,99.90
2022-07-26T22:55:33.906Z,99.90
2022-07-26T22:58:01.451Z,99.90
2022-07-26T23:00:28.888Z,99.90
2022-07-26T23:02:56.432Z,99.90
2022-07-26T23:05:26.091Z,99.90
2022-07-26T23:08:23.571Z,99.90
2022-07-26T23:10:54.150Z,99.90
2022-07-26T23:13:21.312Z,99.90
2022-07-26T23:15:53.566Z,99.90
2022-07-26T23:18:23.129Z,99.90
2022-07-26T23:20:50.525Z,99.90
2022-07-26T23:23:17.694Z,99.90
2022-07-26T23:25:44.933Z,99.90
2022-07-26T23:28:35.685Z,99.90
2022-07-26T23:31:02.351Z,99.90
2022-07-26T23:33:52.122Z,99.90
2022-07-26T23:36:16.723Z,99.90
2022-07-26T23:38:43.905Z,99.90
2022-07-26T23:41:11.150Z,99.90
2022-07-26T23:43:38.288Z,99.90
2022-07-26T23:46:05.389Z,99.90
2022-07-26T23:48:32.507Z,99.90
2022-07-26T23:50:59.814Z,99.90
2022-07-26T23:53:27.377Z,99.90
2022-07-26T23:55:54.751Z,99.90
2022-07-26T23:58:22.117Z,99.90
